Time;durP1;ratioP1;P1;durP2;ratioP2;P2;SDS_P1;SDS_P2;PMS_P1;PMS_P2;Temp;Humidity;BMP_temperature;BMP_pressure;BME280_temperature;BME280_humidity;BME280_pressure;Samples;Min_cycle;Max_cycle;Signal;HPM_P1;HPM_P2
2023/12/12 00:01:05;;;;;;;2.28;0.80;;;10.90;99.90;;;;;;5010396;28;20096;-82
2023/12/12 00:03:32;;;;;;;1.45;0.80;;;10.90;99.90;;;;;;5011836;28;20046;-82
2023/12/12 00:06:00;;;;;;;0.70;0.60;;;11.00;99.90;;;;;;5012284;28;20061;-81
2023/12/12 00:08:27;;;;;;;2.80;0.85;;;11.00;99.90;;;;;;5013907;28;20065;-82
2023/12/12 00:10:54;;;;;;;3.55;0.65;;;11.00;99.90;;;;;;5014814;28;20054;-82
2023/12/12 00:13:21;;;;;;;2.30;1.00;;;11.00;99.90;;;;;;5007773;28;20057;-81
2023/12/12 00:15:48;;;;;;;1.25;0.70;;;11.00;99.90;;;;;;5016021;28;20076;-80
2023/12/12 00:18:15;;;;;;;3.03;0.80;;;11.00;99.90;;;;;;5006518;28;20050;-82
2023/12/12 00:20:43;;;;;;;1.48;0.70;;;11.00;99.90;;;;;;5015031;28;20076;-81
2023/12/12 00:23:09;;;;;;;4.40;1.13;;;11.00;99.90;;;;;;5015777;28;20050;-83
2023/12/12 00:25:36;;;;;;;2.63;0.55;;;11.00;99.90;;;;;;5012929;28;20104;-82
2023/12/12 00:28:03;;;;;;;1.30;0.60;;;11.00;99.90;;;;;;5009369;28;20049;-81
2023/12/12 00:30:30;;;;;;;1.88;0.70;;;11.10;99.90;;;;;;5010891;28;20046;-83
2023/12/12 00:32:57;;;;;;;3.15;0.75;;;11.00;99.90;;;;;;5016835;28;20054;-82
2023/12/12 00:35:23;;;;;;;1.70;0.70;;;11.10;99.90;;;;;;5021389;28;20050;-84
2023/12/12 00:37:50;;;;;;;1.05;0.47;;;11.10;99.90;;;;;;5014612;28;20069;-83
2023/12/12 00:40:17;;;;;;;2.38;0.80;;;11.10;99.90;;;;;;5013988;28;20104;-82
2023/12/12 00:42:44;;;;;;;1.25;0.73;;;11.10;99.90;;;;;;5012948;28;20042;-82
2023/12/12 00:45:10;;;;;;;1.98;0.63;;;11.10;99.90;;;;;;5012261;28;20046;-83
2023/12/12 00:47:37;;;;;;;1.77;0.50;;;11.10;99.90;;;;;;5016149;28;20046;-82
2023/12/12 00:50:05;;;;;;;1.27;0.65;;;11.10;99.90;;;;;;5008332;28;20053;-84
2023/12/12 00:52:31;;;;;;;1.35;0.60;;;11.10;99.90;;;;;;5013670;28;20109;-82
2023/12/12 00:54:59;;;;;;;1.63;0.52;;;11.10;99.90;;;;;;5011008;28;20050;-83
2023/12/12 00:57:26;;;;;;;1.60;0.50;;;11.20;99.90;;;;;;5026964;28;20054;-82
2023/12/12 00:59:53;;;;;;;0.80;0.60;;;11.20;99.90;;;;;;5010770;28;20129;-84
2023/12/12 01:02:23;;;;;;;2.47;0.50;;;11.20;99.90;;;;;;5012698;28;20493;-83
2023/12/12 01:04:50;;;;;;;1.20;0.55;;;11.20;99.90;;;;;;5017384;28;20046;-82
2023/12/12 01:07:17;;;;;;;2.88;0.80;;;11.20;99.90;;;;;;5012982;28;20501;-84
2023/12/12 01:09:45;;;;;;;0.57;0.40;;;11.20;99.90;;;;;;5013411;28;20085;-82
2023/12/12 01:12:12;;;;;;;3.70;0.57;;;11.20;99.90;;;;;;5010237;28;20054;-84
2023/12/12 01:14:38;;;;;;;1.10;0.70;;;11.30;99.90;;;;;;5012686;28;20109;-83
2023/12/12 01:17:05;;;;;;;1.13;0.60;;;11.30;99.90;;;;;;5021223;28;20501;-82
2023/12/12 01:19:32;;;;;;;0.40;0.40;;;11.30;99.90;;;;;;5030281;28;20049;-82
2023/12/12 01:21:59;;;;;;;0.63;0.63;;;11.30;99.90;;;;;;5016758;28;20389;-82
2023/12/12 01:24:26;;;;;;;1.02;0.47;;;11.30;99.90;;;;;;5012934;28;20050;-82
2023/12/12 01:26:52;;;;;;;3.08;0.90;;;11.30;99.90;;;;;;5024410;28;20072;-82
2023/12/12 01:29:19;;;;;;;1.10;0.45;;;11.30;99.90;;;;;;5010466;28;20053;-82
2023/12/12 01:31:46;;;;;;;0.55;0.40;;;11.30;99.90;;;;;;5016266;28;20058;-84
2023/12/12 01:34:12;;;;;;;0.60;0.40;;;11.30;99.90;;;;;;5014671;28;20054;-83
2023/12/12 01:36:39;;;;;;;0.88;0.50;;;11.30;99.90;;;;;;5009177;28;20062;-84
2023/12/12 01:39:06;;;;;;;0.80;0.50;;;11.30;99.90;;;;;;5013671;28;20050;-84
2023/12/12 01:41:33;;;;;;;1.70;0.73;;;11.30;99.90;;;;;;5009443;28;20460;-83
2023/12/12 01:43:59;;;;;;;0.55;0.50;;;11.40;99.90;;;;;;5011850;28;20104;-83
2023/12/12 01:46:26;;;;;;;0.55;0.45;;;11.40;99.90;;;;;;5014922;28;20402;-81
2023/12/12 01:48:53;;;;;;;0.52;0.40;;;11.40;99.90;;;;;;5011512;28;20050;-82
2023/12/12 01:51:20;;;;;;;0.70;0.28;;;11.40;99.90;;;;;;5015786;28;20050;-84
2023/12/12 01:53:50;;;;;;;0.63;0.50;;;11.40;99.90;;;;;;5011045;28;20051;-83
2023/12/12 01:56:18;;;;;;;0.55;0.30;;;11.40;99.90;;;;;;5016378;28;20115;-82
2023/12/12 01:58:48;;;;;;;2.13;0.70;;;11.40;99.90;;;;;;5008691;28;20109;-83
2023/12/12 02:01:15;;;;;;;1.60;0.50;;;11.40;99.90;;;;;;5015109;28;20059;-82
2023/12/12 02:03:43;;;;;;;1.27;0.50;;;11.40;99.90;;;;;;5013872;28;20050;-82
2023/12/12 02:06:12;;;;;;;1.92;0.60;;;11.40;99.90;;;;;;5009169;28;20485;-82
2023/12/12 02:08:40;;;;;;;0.50;0.30;;;11.40;99.90;;;;;;5011343;28;20057;-79
2023/12/12 02:11:07;;;;;;;0.98;0.40;;;11.40;99.90;;;;;;5013755;28;20053;-83
2023/12/12 02:13:34;;;;;;;1.08;0.50;;;11.40;99.90;;;;;;5009285;28;20096;-81
2023/12/12 02:16:00;;;;;;;1.20;0.50;;;11.40;99.90;;;;;;5012186;28;20056;-82
2023/12/12 02:18:27;;;;;;;0.40;0.40;;;11.50;99.90;;;;;;5008163;28;20093;-83
2023/12/12 02:20:54;;;;;;;1.92;0.45;;;11.50;99.90;;;;;;5011208;28;20049;-82
2023/12/12 02:23:21;;;;;;;0.95;0.50;;;11.40;99.90;;;;;;5007414;28;20037;-82
2023/12/12 02:25:47;;;;;;;4.03;0.70;;;11.40;99.90;;;;;;5009280;28;20070;-83
2023/12/12 02:28:15;;;;;;;1.33;0.52;;;11.40;99.90;;;;;;5009895;28;20041;-84
2023/12/12 02:30:42;;;;;;;1.10;0.45;;;11.40;99.90;;;;;;5007652;28;20046;-84
2023/12/12 02:33:09;;;;;;;0.88;0.60;;;11.40;99.90;;;;;;5012274;28;20046;-83
2023/12/12 02:35:36;;;;;;;0.85;0.75;;;11.40;99.90;;;;;;5007662;28;20113;-83
2023/12/12 02:38:03;;;;;;;1.55;0.70;;;11.40;99.90;;;;;;5013582;28;20104;-82
2023/12/12 02:40:30;;;;;;;1.58;0.50;;;11.40;99.90;;;;;;5012284;28;20313;-81
2023/12/12 02:42:57;;;;;;;1.48;0.60;;;11.40;99.90;;;;;;5014714;28;20417;-81
2023/12/12 02:45:24;;;;;;;0.70;0.70;;;11.40;99.90;;;;;;5009729;28;20459;-83
2023/12/12 02:47:51;;;;;;;1.15;0.50;;;11.30;99.90;;;;;;5011466;28;20043;-83
2023/12/12 02:50:18;;;;;;;3.17;0.50;;;11.30;99.90;;;;;;5015511;28;20046;-83
2023/12/12 02:52:49;;;;;;;1.23;0.50;;;11.30;99.90;;;;;;5010334;28;20043;-83
2023/12/12 02:55:16;;;;;;;3.33;0.47;;;11.30;99.90;;;;;;5014183;28;20598;-82
2023/12/12 02:57:43;;;;;;;0.73;0.60;;;11.30;99.90;;;;;;5008367;28;20426;-83
2023/12/12 03:00:10;;;;;;;1.23;0.40;;;11.30;99.90;;;;;;5011233;28;20046;-80
2023/12/12 03:02:36;;;;;;;1.10;0.45;;;11.30;99.90;;;;;;5006738;28;20093;-82
2023/12/12 03:05:04;;;;;;;0.80;0.50;;;11.30;99.90;;;;;;5010789;28;20041;-82
2023/12/12 03:07:31;;;;;;;0.50;0.50;;;11.30;99.90;;;;;;5011601;28;20070;-81
2023/12/12 03:09:59;;;;;;;1.25;0.70;;;11.30;99.90;;;;;;5013000;28;20058;-82
2023/12/12 03:12:26;;;;;;;2.28;0.60;;;11.30;99.90;;;;;;5005761;28;20054;-83
2023/12/12 03:14:52;;;;;;;0.93;0.60;;;11.30;99.90;;;;;;5011771;28;20521;-82
2023/12/12 03:17:19;;;;;;;1.45;0.40;;;11.30;99.90;;;;;;5006590;28;20076;-83
2023/12/12 03:19:46;;;;;;;1.58;0.50;;;11.30;99.90;;;;;;5025041;28;20073;-82
2023/12/12 03:22:13;;;;;;;1.75;0.50;;;11.30;99.90;;;;;;5008275;28;20045;-82
2023/12/12 03:24:39;;;;;;;0.38;0.38;;;11.30;99.90;;;;;;5009133;28;20044;-83
2023/12/12 03:27:08;;;;;;;1.63;0.40;;;11.30;99.90;;;;;;5005772;28;20091;-82
2023/12/12 03:29:35;;;;;;;2.15;0.40;;;11.30;99.90;;;;;;5009600;28;20054;-83
2023/12/12 03:32:02;;;;;;;1.02;0.30;;;11.30;99.90;;;;;;5023104;28;20097;-84
2023/12/12 03:34:29;;;;;;;0.38;0.30;;;11.30;99.90;;;;;;5009299;28;20480;-83
2023/12/12 03:36:56;;;;;;;0.93;0.60;;;11.30;99.90;;;;;;5009866;28;20054;-84
2023/12/12 03:39:23;;;;;;;0.80;0.35;;;11.30;99.90;;;;;;5007419;28;20053;-80
2023/12/12 03:41:50;;;;;;;0.47;0.30;;;11.30;99.90;;;;;;5011013;28;20046;-83
2023/12/12 03:44:17;;;;;;;0.65;0.30;;;11.30;99.90;;;;;;5012555;28;20045;-83
2023/12/12 03:46:44;;;;;;;0.63;0.30;;;11.30;99.90;;;;;;5011782;28;20046;-82
2023/12/12 03:49:11;;;;;;;1.20;0.30;;;11.30;99.90;;;;;;5004448;28;20101;-82
2023/12/12 03:51:37;;;;;;;0.68;0.20;;;11.20;99.90;;;;;;5010894;28;20130;-82
2023/12/12 03:54:04;;;;;;;2.08;0.30;;;11.30;99.90;;;;;;5006075;28;20050;-82
2023/12/12 03:56:31;;;;;;;1.65;0.30;;;11.20;99.90;;;;;;5008702;28;20046;-82
2023/12/12 03:59:00;;;;;;;0.57;0.30;;;11.20;99.90;;;;;;5007081;28;20050;-83
2023/12/12 04:01:27;;;;;;;0.20;0.20;;;11.20;99.90;;;;;;5005369;28;20469;-83
2023/12/12 04:03:55;;;;;;;0.20;0.20;;;11.20;99.90;;;;;;5007727;28;20511;-82
2023/12/12 04:06:23;;;;;;;1.75;0.20;;;11.30;99.90;;;;;;5009028;28;20042;-83
2023/12/12 04:08:50;;;;;;;0.30;0.20;;;11.30;99.90;;;;;;5011754;28;20045;-83
2023/12/12 04:11:17;;;;;;;0.95;0.40;;;11.30;99.90;;;;;;5009182;28;20042;-80
2023/12/12 04:13:44;;;;;;;0.43;0.20;;;11.30;99.90;;;;;;5006276;28;20490;-81
2023/12/12 04:16:10;;;;;;;0.13;0.13;;;11.30;99.90;;;;;;5009188;28;20100;-82
2023/12/12 04:18:37;;;;;;;0.10;0.10;;;11.30;99.90;;;;;;5008123;28;20083;-81
2023/12/12 04:21:05;;;;;;;0.20;0.20;;;11.30;99.90;;;;;;5012865;28;20042;-81
2023/12/12 04:23:32;;;;;;;1.05;0.40;;;11.30;99.90;;;;;;5007104;28;20042;-81
2023/12/12 04:25:59;;;;;;;0.50;0.50;;;11.30;99.90;;;;;;5006839;28;20050;-84
2023/12/12 04:28:26;;;;;;;0.90;0.20;;;11.30;99.90;;;;;;5012056;28;20046;-82
2023/12/12 04:30:52;;;;;;;0.30;0.30;;;11.30;99.90;;;;;;5006649;28;20426;-81
2023/12/12 04:33:19;;;;;;;0.20;0.20;;;11.40;99.90;;;;;;5014170;28;20042;-81
2023/12/12 04:35:46;;;;;;;0.20;0.20;;;11.40;99.90;;;;;;5007622;28;20130;-82
2023/12/12 04:38:13;;;;;;;1.70;0.30;;;11.40;99.90;;;;;;5010360;28;20460;-83
2023/12/12 04:40:39;;;;;;;0.20;0.20;;;11.40;99.90;;;;;;5007885;28;20092;-82
2023/12/12 04:43:06;;;;;;;0.30;0.30;;;11.40;99.90;;;;;;5012895;28;20485;-81
2023/12/12 04:45:33;;;;;;;0.30;0.20;;;11.40;99.90;;;;;;5007513;28;20049;-81
2023/12/12 04:48:00;;;;;;;0.77;0.30;;;11.40;99.90;;;;;;5007163;28;20043;-81
2023/12/12 04:50:27;;;;;;;0.30;0.30;;;11.40;99.90;;;;;;5009060;28;20156;-82
2023/12/12 04:52:53;;;;;;;0.50;0.45;;;11.50;99.90;;;;;;5005991;28;20469;-82
2023/12/12 04:55:20;;;;;;;0.30;0.30;;;11.50;99.90;;;;;;5008929;28;20085;-81
2023/12/12 04:57:47;;;;;;;0.60;0.60;;;11.50;99.90;;;;;;5006240;28;20102;-81
2023/12/12 05:00:14;;;;;;;0.60;0.40;;;11.50;99.90;;;;;;5011615;28;20046;-81
2023/12/12 05:02:41;;;;;;;0.50;0.47;;;11.50;99.90;;;;;;5010981;28;20050;-82
2023/12/12 05:05:09;;;;;;;2.03;0.45;;;11.50;99.90;;;;;;5019297;28;20458;-80
2023/12/12 05:07:36;;;;;;;1.45;0.55;;;11.60;99.90;;;;;;5019458;28;20046;-80
2023/12/12 05:10:04;;;;;;;0.50;0.50;;;11.60;99.90;;;;;;5011484;28;20050;-81
2023/12/12 05:12:31;;;;;;;1.55;0.60;;;11.60;99.90;;;;;;5007733;28;20549;-81
2023/12/12 05:15:01;;;;;;;0.63;0.57;;;11.60;99.90;;;;;;5008316;28;20046;-80
2023/12/12 05:17:28;;;;;;;0.60;0.60;;;11.60;99.90;;;;;;5015826;28;20045;-82
2023/12/12 05:19:58;;;;;;;1.83;0.60;;;11.60;99.90;;;;;;5010922;28;20108;-81
2023/12/12 05:22:25;;;;;;;1.95;0.50;;;11.60;99.90;;;;;;5013495;28;20049;-81
2023/12/12 05:24:52;;;;;;;0.63;0.63;;;11.70;99.90;;;;;;5014274;28;20097;-80
2023/12/12 05:27:18;;;;;;;0.63;0.52;;;11.60;99.90;;;;;;5013298;28;20045;-81
2023/12/12 05:29:45;;;;;;;1.55;0.60;;;11.70;99.90;;;;;;5009664;28;20046;-81
2023/12/12 05:32:13;;;;;;;1.35;0.63;;;11.70;99.90;;;;;;5012895;28;20473;-81
2023/12/12 05:34:40;;;;;;;0.73;0.50;;;11.70;99.90;;;;;;5007931;28;20043;-83
2023/12/12 05:37:08;;;;;;;0.40;0.40;;;11.70;99.90;;;;;;5015895;28;20081;-80
2023/12/12 05:39:35;;;;;;;0.90;0.80;;;11.70;99.90;;;;;;5007537;28;20049;-80
2023/12/12 05:42:02;;;;;;;1.85;0.60;;;11.70;99.90;;;;;;5012522;28;20054;-82
2023/12/12 05:44:31;;;;;;;0.30;0.30;;;11.70;99.90;;;;;;5016133;28;20042;-81
2023/12/12 05:46:58;;;;;;;0.30;0.30;;;11.70;99.90;;;;;;5011077;28;20122;-78
2023/12/12 05:49:25;;;;;;;0.30;0.30;;;11.70;99.90;;;;;;5009837;28;20429;-80
2023/12/12 05:51:52;;;;;;;3.47;0.30;;;11.70;99.90;;;;;;5010996;28;20054;-81
2023/12/12 05:54:19;;;;;;;0.63;0.30;;;11.70;99.90;;;;;;5010079;28;20045;-80
2023/12/12 05:56:49;;;;;;;0.30;0.30;;;11.70;99.90;;;;;;5010558;28;20050;-81
2023/12/12 05:59:16;;;;;;;2.63;0.30;;;11.80;99.90;;;;;;5009239;28;20088;-81
2023/12/12 06:01:43;;;;;;;2.10;0.50;;;11.80;99.90;;;;;;5009814;28;20418;-81
2023/12/12 06:04:14;;;;;;;8.63;6.07;;;11.80;99.90;;;;;;5013616;28;20041;-81
2023/12/12 06:06:42;;;;;;;7.90;5.85;;;11.80;99.90;;;;;;5007689;28;20046;-81
2023/12/12 06:09:11;;;;;;;4.28;2.42;;;11.80;99.90;;;;;;5012998;28;20107;-81
2023/12/12 06:11:38;;;;;;;0.50;0.50;;;11.80;99.90;;;;;;5012686;28;20042;-80
2023/12/12 06:14:05;;;;;;;1.40;0.70;;;11.80;99.90;;;;;;5012394;28;20050;-81
2023/12/12 06:16:34;;;;;;;0.50;0.45;;;11.80;99.90;;;;;;5015566;28;20046;-82
2023/12/12 06:19:04;;;;;;;0.32;0.32;;;11.80;99.90;;;;;;5013306;28;20471;-81
2023/12/12 06:21:32;;;;;;;;;;;11.80;99.90;;;;;;5009701;28;20526;-80
2023/12/12 06:24:03;;;;;;;0.30;0.30;;;11.80;99.90;;;;;;5010952;28;20376;-83
2023/12/12 06:26:31;;;;;;;0.30;0.30;;;11.80;99.90;;;;;;5016125;28;20042;-81
2023/12/12 06:28:58;;;;;;;0.30;0.30;;;11.80;99.90;;;;;;5008103;28;20058;-81
2023/12/12 06:31:25;;;;;;;0.47;0.30;;;11.80;99.90;;;;;;5014759;28;20045;-81
2023/12/12 06:33:52;;;;;;;0.20;0.20;;;11.80;99.90;;;;;;5009760;28;20046;-82
2023/12/12 06:36:20;;;;;;;0.35;0.28;;;11.80;99.90;;;;;;5015503;28;20486;-80
2023/12/12 06:38:47;;;;;;;0.30;0.30;;;11.80;99.90;;;;;;5006354;28;20050;-80
2023/12/12 06:41:14;;;;;;;0.43;0.30;;;11.90;99.90;;;;;;5012604;28;20448;-80
2023/12/12 06:43:42;;;;;;;0.30;0.30;;;11.90;99.90;;;;;;5011947;28;20050;-81
2023/12/12 06:46:10;;;;;;;3.72;0.28;;;11.90;99.90;;;;;;5013701;28;20050;-80
2023/12/12 06:48:38;;;;;;;0.28;0.28;;;11.90;99.90;;;;;;5007130;28;20540;-81
2023/12/12 06:51:06;;;;;;;0.85;0.30;;;11.90;99.90;;;;;;5009981;28;20565;-82
2023/12/12 06:53:33;;;;;;;1.85;0.32;;;11.90;99.90;;;;;;5008654;28;20514;-82
2023/12/12 06:56:00;;;;;;;0.30;0.30;;;11.90;99.90;;;;;;5011617;28;20046;-81
2023/12/12 06:58:27;;;;;;;0.35;0.30;;;11.90;99.90;;;;;;5013454;28;20046;-80
2023/12/12 07:00:54;;;;;;;0.20;0.20;;;11.90;99.90;;;;;;5010944;28;20137;-85
2023/12/12 07:03:24;;;;;;;0.20;0.20;;;11.90;99.90;;;;;;5006699;28;20037;-81
2023/12/12 07:05:51;;;;;;;0.20;0.20;;;11.90;99.90;;;;;;5008520;28;20526;-81
2023/12/12 07:08:18;;;;;;;0.20;0.20;;;11.90;99.90;;;;;;5014251;28;20478;-81
2023/12/12 07:10:46;;;;;;;0.32;0.20;;;11.90;99.90;;;;;;5007180;28;20430;-80
2023/12/12 07:13:13;;;;;;;0.20;0.20;;;11.90;99.90;;;;;;5011696;28;20057;-81
2023/12/12 07:15:40;;;;;;;0.30;0.28;;;12.00;99.90;;;;;;5006886;28;20077;-81
2023/12/12 07:18:10;;;;;;;0.38;0.32;;;11.90;99.90;;;;;;5010668;28;20058;-80
2023/12/12 07:20:37;;;;;;;0.20;0.20;;;11.90;99.90;;;;;;5009275;28;20085;-81
2023/12/12 07:23:04;;;;;;;0.28;0.28;;;11.90;99.90;;;;;;5010596;28;20085;-82
2023/12/12 07:25:31;;;;;;;0.73;0.50;;;11.90;99.90;;;;;;5009074;28;20049;-82
2023/12/12 07:27:58;;;;;;;0.57;0.40;;;11.90;99.90;;;;;;5012521;28;20112;-81
2023/12/12 07:30:27;;;;;;;0.30;0.30;;;11.90;99.90;;;;;;5008424;28;20060;-81
2023/12/12 07:32:57;;;;;;;2.47;0.43;;;11.90;99.90;;;;;;5008168;28;20058;-82
2023/12/12 07:35:25;;;;;;;0.10;0.10;;;11.90;99.90;;;;;;5010650;28;20472;-82
2023/12/12 07:37:51;;;;;;;0.30;0.30;;;11.90;99.90;;;;;;5007081;28;20105;-81
2023/12/12 07:40:18;;;;;;;0.20;0.20;;;11.90;99.90;;;;;;5009779;28;20382;-80
2023/12/12 07:42:45;;;;;;;1.60;0.38;;;11.90;99.90;;;;;;5007690;28;20049;-81
2023/12/12 07:45:12;;;;;;;2.22;0.30;;;11.90;99.90;;;;;;5011776;28;20053;-82
2023/12/12 07:47:39;;;;;;;0.95;0.20;;;11.90;99.90;;;;;;5007524;28;20038;-80
2023/12/12 07:50:10;;;;;;;0.77;0.40;;;11.90;99.90;;;;;;5010276;28;20054;-81
2023/12/12 07:52:37;;;;;;;0.43;0.20;;;11.90;99.90;;;;;;5009216;28;20461;-82
2023/12/12 07:55:05;;;;;;;0.32;0.20;;;11.90;99.90;;;;;;5009206;28;20058;-82
2023/12/12 07:57:32;;;;;;;0.85;0.50;;;11.90;99.90;;;;;;5004791;28;20045;-81
2023/12/12 08:00:00;;;;;;;1.10;0.55;;;11.90;99.90;;;;;;5011064;28;20422;-80
2023/12/12 08:02:27;;;;;;;1.35;0.50;;;11.90;99.90;;;;;;5008042;28;20045;-82
2023/12/12 08:04:54;;;;;;;0.95;0.30;;;11.90;99.90;;;;;;5011316;28;20045;-81
2023/12/12 08:07:22;;;;;;;0.85;0.20;;;11.90;99.90;;;;;;5028722;28;20050;-79
2023/12/12 08:09:49;;;;;;;0.28;0.28;;;11.90;99.90;;;;;;5013633;28;20046;-80
2023/12/12 08:12:16;;;;;;;0.95;0.20;;;11.90;99.90;;;;;;5009124;28;20151;-81
2023/12/12 08:14:43;;;;;;;0.73;0.30;;;11.90;99.90;;;;;;5007941;28;20100;-80
2023/12/12 08:17:13;;;;;;;2.40;0.40;;;11.90;99.90;;;;;;5011260;28;20047;-81
2023/12/12 08:19:40;;;;;;;0.35;0.30;;;11.90;99.90;;;;;;5007664;28;20076;-82
2023/12/12 08:22:07;;;;;;;0.30;0.30;;;11.90;99.90;;;;;;5011421;28;20550;-80
2023/12/12 08:24:34;;;;;;;0.30;0.25;;;11.90;99.90;;;;;;5009276;28;20398;-81
2023/12/12 08:27:01;;;;;;;0.10;0.10;;;12.00;99.90;;;;;;5008401;28;20045;-81
2023/12/12 08:29:28;;;;;;;0.20;0.20;;;12.00;99.90;;;;;;5006710;28;20041;-81
2023/12/12 08:31:58;;;;;;;0.32;0.30;;;12.00;99.90;;;;;;5009812;28;20049;-81
2023/12/12 08:34:24;;;;;;;1.65;0.30;;;12.00;99.90;;;;;;5007066;28;20134;-81
2023/12/12 08:36:51;;;;;;;0.20;0.20;;;12.00;99.90;;;;;;5011974;28;20049;-82
2023/12/12 08:39:18;;;;;;;0.50;0.20;;;12.10;99.90;;;;;;5008922;28;20050;-81
2023/12/12 08:41:45;;;;;;;0.80;0.30;;;12.10;99.90;;;;;;5002573;28;20146;-82
2023/12/12 08:44:12;;;;;;;0.50;0.30;;;12.10;99.90;;;;;;5008715;28;20106;-81
2023/12/12 08:46:43;;;;;;;0.20;0.20;;;12.10;99.90;;;;;;5009262;28;20088;-82
2023/12/12 08:49:10;;;;;;;1.00;0.20;;;12.10;99.90;;;;;;5010653;28;20133;-82
2023/12/12 08:51:39;;;;;;;0.32;0.32;;;12.20;99.90;;;;;;5012180;28;20041;-80
2023/12/12 08:54:06;;;;;;;0.35;0.30;;;12.20;99.90;;;;;;5019299;28;20110;-80
2023/12/12 08:56:32;;;;;;;0.70;0.43;;;12.20;99.90;;;;;;5014053;28;20101;-80
2023/12/12 08:58:59;;;;;;;0.20;0.20;;;12.30;99.90;;;;;;5014222;28;20046;-82
2023/12/12 09:01:26;;;;;;;0.90;0.57;;;12.30;99.90;;;;;;5010482;28;20046;-81
2023/12/12 09:03:53;;;;;;;0.30;0.30;;;12.30;99.90;;;;;;5010490;28;20417;-82
2023/12/12 09:06:20;;;;;;;0.50;0.30;;;12.30;99.90;;;;;;5010057;28;20050;-81
2023/12/12 09:08:47;;;;;;;0.50;0.20;;;12.30;99.90;;;;;;5013014;28;20045;-83
2023/12/12 09:11:14;;;;;;;0.40;0.40;;;12.40;99.90;;;;;;5015566;28;20058;-81
2023/12/12 09:13:42;;;;;;;0.70;0.30;;;12.40;99.90;;;;;;5014384;28;20128;-82
2023/12/12 09:16:09;;;;;;;0.20;0.20;;;12.40;99.90;;;;;;5011394;28;20474;-82
2023/12/12 09:18:37;;;;;;;0.22;0.22;;;12.50;99.90;;;;;;5015832;28;20129;-82
2023/12/12 09:21:06;;;;;;;0.47;0.40;;;12.50;99.90;;;;;;5009929;28;20046;-82
2023/12/12 09:23:34;;;;;;;0.75;0.52;;;12.50;99.90;;;;;;5012801;28;20103;-81
2023/12/12 09:26:01;;;;;;;1.08;0.55;;;12.60;99.90;;;;;;5026781;28;20054;-81
2023/12/12 09:28:28;;;;;;;0.20;0.20;;;12.60;99.90;;;;;;5011660;28;20078;-81
2023/12/12 09:30:55;;;;;;;0.35;0.30;;;12.60;99.90;;;;;;5015817;28;20053;-81
2023/12/12 09:33:22;;;;;;;1.30;0.45;;;12.60;99.90;;;;;;5016057;28;20110;-81
2023/12/12 09:35:49;;;;;;;0.40;0.40;;;12.70;99.90;;;;;;5015908;28;20065;-82
2023/12/12 09:38:16;;;;;;;0.70;0.40;;;12.70;99.90;;;;;;5009349;28;20108;-80
2023/12/12 09:40:43;;;;;;;0.20;0.20;;;12.70;99.90;;;;;;5014417;28;20045;-83
2023/12/12 09:43:11;;;;;;;0.20;0.20;;;12.70;99.90;;;;;;5010805;28;20104;-81
2023/12/12 09:45:44;;;;;;;0.30;0.30;;;12.70;99.90;;;;;;5013885;28;20042;-81
2023/12/12 09:48:13;;;;;;;0.30;0.30;;;12.80;99.90;;;;;;5010638;28;20042;-81
2023/12/12 09:50:42;;;;;;;0.52;0.50;;;12.80;99.90;;;;;;5010488;28;20101;-82
2023/12/12 09:53:09;;;;;;;0.50;0.50;;;12.90;99.90;;;;;;5010378;28;20058;-82
2023/12/12 09:55:36;;;;;;;3.55;1.73;;;12.90;99.90;;;;;;5009936;28;20046;-82
2023/12/12 09:58:03;;;;;;;19.77;11.32;;;12.90;99.90;;;;;;5011557;28;20476;-82
2023/12/12 10:00:30;;;;;;;1.17;0.90;;;13.00;99.90;;;;;;5011313;28;20042;-82
2023/12/12 10:02:58;;;;;;;2.00;1.63;;;13.00;99.90;;;;;;5015225;28;20042;-82
2023/12/12 10:05:30;;;;;;;3.28;2.47;;;13.10;99.90;;;;;;5010568;28;20054;-82
2023/12/12 10:07:57;;;;;;;2.85;1.20;;;13.10;99.90;;;;;;5013928;28;20468;-81
2023/12/12 10:10:34;;;;;;;1.60;0.90;;;13.10;99.90;;;;;;5010067;28;20049;-82
2023/12/12 10:13:01;;;;;;;2.00;1.05;;;13.10;99.90;;;;;;5013615;28;20061;-82
2023/12/12 10:15:27;;;;;;;0.40;0.40;;;13.20;99.90;;;;;;5012978;28;20588;-81
2023/12/12 10:17:58;;;;;;;0.52;0.45;;;13.20;99.90;;;;;;5008686;28;20081;-82
2023/12/12 10:20:27;;;;;;;0.82;0.32;;;13.20;99.90;;;;;;5011855;28;20081;-81
2023/12/12 10:22:59;;;;;;;0.30;0.30;;;13.30;99.90;;;;;;5009405;28;20077;-82
2023/12/12 10:25:28;;;;;;;1.42;0.30;;;13.30;99.90;;;;;;5011176;28;20073;-81
2023/12/12 10:27:56;;;;;;;0.63;0.30;;;13.30;99.90;;;;;;5008797;28;20077;-81
2023/12/12 10:30:23;;;;;;;1.05;0.30;;;13.30;99.90;;;;;;5013053;28;20422;-81
2023/12/12 10:32:51;;;;;;;0.85;0.40;;;13.30;99.90;;;;;;5010062;28;20042;-82
2023/12/12 10:35:22;;;;;;;1.17;0.38;;;13.50;99.90;;;;;;5011323;28;20047;-81
2023/12/12 10:37:52;;;;;;;0.30;0.30;;;13.40;99.90;;;;;;5007604;28;20172;-80
2023/12/12 10:40:22;;;;;;;1.48;0.30;;;13.40;99.90;;;;;;5009902;28;20046;-81
2023/12/12 10:42:51;;;;;;;0.30;0.28;;;13.40;99.90;;;;;;5008724;28;20054;-80
2023/12/12 10:45:20;;;;;;;0.35;0.30;;;13.40;99.90;;;;;;5012946;28;20470;-81
2023/12/12 10:47:49;;;;;;;0.45;0.28;;;13.50;99.90;;;;;;5013869;28;20046;-81
2023/12/12 10:50:17;;;;;;;2.05;0.45;;;13.50;99.90;;;;;;5011597;28;20426;-81
2023/12/12 10:52:46;;;;;;;0.30;0.30;;;13.50;99.90;;;;;;5011138;28;20131;-81
2023/12/12 10:55:14;;;;;;;3.42;0.50;;;13.60;99.90;;;;;;5007864;28;20577;-81
2023/12/12 10:57:43;;;;;;;1.23;0.50;;;13.60;99.90;;;;;;5013732;28;20050;-81
2023/12/12 11:00:15;;;;;;;0.20;0.20;;;13.60;99.90;;;;;;5005451;28;20085;-82
2023/12/12 11:02:46;;;;;;;0.20;0.20;;;13.70;99.90;;;;;;5028221;28;20090;-82
2023/12/12 11:05:14;;;;;;;0.60;0.60;;;13.70;99.90;;;;;;5006478;28;20485;-82
2023/12/12 11:07:46;;;;;;;0.73;0.68;;;13.80;99.90;;;;;;5015500;28;20073;-79
2023/12/12 11:10:17;;;;;;;0.30;0.30;;;13.80;99.90;;;;;;5007865;28;20057;-82
2023/12/12 11:12:56;;;;;;;0.30;0.30;;;13.90;99.90;;;;;;5011468;28;20038;-82
2023/12/12 11:15:25;;;;;;;0.90;0.22;;;13.90;99.90;;;;;;5009607;28;20288;-81
2023/12/12 11:17:52;;;;;;;0.30;0.30;;;13.90;99.90;;;;;;5010558;28;20050;-81
2023/12/12 11:20:21;;;;;;;0.70;0.40;;;13.90;99.90;;;;;;5008165;28;20050;-81
2023/12/12 11:22:51;;;;;;;0.47;0.30;;;14.00;99.90;;;;;;5010219;28;20513;-82
2023/12/12 11:25:19;;;;;;;0.28;0.28;;;13.90;99.90;;;;;;5012775;28;20128;-81
2023/12/12 11:27:56;;;;;;;0.20;0.20;;;14.00;99.90;;;;;;5007571;28;20076;-82
2023/12/12 11:30:38;;;;;;;0.40;0.40;;;14.00;99.90;;;;;;5008321;28;20050;-82
2023/12/12 11:33:06;;;;;;;0.10;0.10;;;14.10;99.90;;;;;;5025451;28;20049;-82
2023/12/12 11:35:34;;;;;;;0.50;0.38;;;14.00;99.90;;;;;;5025110;28;20126;-80
2023/12/12 11:38:04;;;;;;;0.20;0.20;;;14.10;99.90;;;;;;5008358;28;20053;-81
2023/12/12 11:40:37;;;;;;;0.98;0.38;;;14.10;99.90;;;;;;5009508;28;20069;-82
2023/12/12 11:43:23;;;;;;;0.32;0.32;;;14.10;99.90;;;;;;5014963;28;20082;-81
2023/12/12 11:45:51;;;;;;;1.33;0.35;;;14.20;99.90;;;;;;5005445;28;20426;-81
2023/12/12 11:48:18;;;;;;;0.30;0.30;;;14.20;99.90;;;;;;5011601;28;20048;-82
2023/12/12 11:50:45;;;;;;;2.17;0.30;;;14.20;99.90;;;;;;5007820;28;20121;-81
2023/12/12 11:53:40;;;;;;;0.38;0.30;;;14.20;99.90;;;;;;5008318;28;20080;-81
2023/12/12 11:56:07;;;;;;;0.20;0.20;;;14.30;99.90;;;;;;5010760;28;20054;-82
2023/12/12 11:58:34;;;;;;;0.30;0.30;;;14.30;99.90;;;;;;5009451;28;20065;-82
2023/12/12 12:01:01;;;;;;;0.30;0.30;;;14.30;99.90;;;;;;5014815;28;20046;-81
2023/12/12 12:03:28;;;;;;;0.80;0.35;;;14.40;99.90;;;;;;5016243;28;20050;-82
2023/12/12 12:05:55;;;;;;;2.15;0.28;;;14.40;99.90;;;;;;5010605;28;20502;-81
2023/12/12 12:08:23;;;;;;;0.40;0.30;;;14.40;99.90;;;;;;5007737;28;20042;-81
2023/12/12 12:10:58;;;;;;;0.40;0.40;;;14.30;99.90;;;;;;5011777;28;20516;-81
2023/12/12 12:13:42;;;;;;;0.40;0.40;;;14.30;99.90;;;;;;5009509;28;20050;-81
2023/12/12 12:16:10;;;;;;;0.82;0.52;;;14.30;99.90;;;;;;5009623;28;20441;-82
2023/12/12 12:18:38;;;;;;;1.50;0.43;;;14.30;99.90;;;;;;5014152;28;20086;-81
2023/12/12 12:21:08;;;;;;;1.48;1.02;;;14.30;99.90;;;;;;5011427;28;20042;-81
2023/12/12 12:23:39;;;;;;;0.82;0.28;;;14.40;99.90;;;;;;5007212;28;20121;-84
2023/12/12 12:26:07;;;;;;;0.50;0.30;;;14.40;99.90;;;;;;5013458;28;20141;-82
2023/12/12 12:28:35;;;;;;;0.98;0.32;;;14.50;99.90;;;;;;5017247;28;20417;-80
2023/12/12 12:31:04;;;;;;;1.00;0.60;;;14.40;99.90;;;;;;5013336;28;20072;-82
2023/12/12 12:33:33;;;;;;;0.35;0.32;;;14.40;99.90;;;;;;5017378;28;20046;-81
2023/12/12 12:36:01;;;;;;;1.13;0.50;;;14.40;99.90;;;;;;5008794;28;20069;-81
2023/12/12 12:38:31;;;;;;;0.68;0.40;;;14.40;99.90;;;;;;5014495;28;20113;-80
2023/12/12 12:40:58;;;;;;;1.10;0.63;;;14.40;99.90;;;;;;5012327;28;20116;-81
2023/12/12 12:43:26;;;;;;;2.83;0.73;;;14.40;99.90;;;;;;5012062;28;20056;-81
2023/12/12 12:45:53;;;;;;;1.02;0.32;;;14.30;99.90;;;;;;5011799;28;20073;-80
2023/12/12 12:48:22;;;;;;;1.15;0.35;;;14.30;99.90;;;;;;5014570;28;20057;-82
2023/12/12 12:50:49;;;;;;;0.88;0.60;;;14.30;99.90;;;;;;5013017;28;20075;-81